This is the latest recevied weather packets stored in our database for station/object DB8NZ-11. If no packets are shown the sender has not sent any weather packets the latest 10 day(s).
| Time | Temp. | Humidity | Pressure | Rain* | Wind** | Luminosity | Snow |
|---|---|---|---|---|---|---|---|
| 1777761724 | 11.11° C | 65% | 1021.3 hPa | - | - | - | - |
| 1777760824 | 11.11° C | 63% | 1021.4 hPa | - | - | - | - |
| 1777759924 | 11.11° C | 63% | 1021.4 hPa | - | - | - | - |
| 1777759024 | 11.67° C | 63% | 1021.4 hPa | - | - | - | - |
| 1777758124 | 12.22° C | 60% | 1021.5 hPa | - | - | - | - |
| 1777757224 | 12.78° C | 59% | 1021.4 hPa | - | - | - | - |
| 1777756324 | 12.78° C | 59% | 1021.5 hPa | - | - | - | - |
| 1777755424 | 12.78° C | 59% | 1021.6 hPa | - | - | - | - |
| 1777754523 | 13.33° C | 56% | 1021.5 hPa | - | - | - | - |
| 1777753623 | 13.89° C | 55% | 1021.6 hPa | - | - | - | - |
| 1777752723 | 14.44° C | 54% | 1021.6 hPa | - | - | - | - |
| 1777751823 | 15° C | 54% | 1021.6 hPa | - | - | - | - |
| 1777750923 | 15.56° C | 50% | 1021.6 hPa | - | - | - | - |
| 1777750023 | 16.11° C | 49% | 1021.5 hPa | - | - | - | - |
| 1777749123 | 17.22° C | 47% | 1021.4 hPa | - | - | - | - |
| 1777748223 | 18.33° C | 46% | 1021.3 hPa | - | - | - | - |
| 1777747323 | 19.44° C | 45% | 1021.2 hPa | - | - | - | - |
| 1777746423 | 21.11° C | 42% | 1021.1 hPa | - | - | - | - |
| 1777745523 | 22.78° C | 39% | 1021 hPa | - | - | - | - |
| 1777744622 | 23.89° C | 34% | 1021 hPa | - | - | - | - |
| 1777743722 | 25.56° C | 30% | 1021 hPa | - | - | - | - |
| 1777742822 | 26.67° C | 26% | 1020.9 hPa | - | - | - | - |
| 1777741922 | 27.78° C | 20% | 1021 hPa | - | - | - | - |
| 1777741022 | 28.33° C | 18% | 1021.2 hPa | - | - | - | - |
| 1777740122 | 28.33° C | 17% | 1021.4 hPa | - | - | - | - |
* Rain since midnight (hover to see other rain measurements)
** Current wind speed in m/s (hover to see current wind gust speed)